Portada
METAR-TAF:

METAR-TAF

Aeroports :

Casals, França

latitud: 44-32N, longitud: 001-08W, altitud: 25 m

Observació

L'informe es va fer fa 31 minuts, a les 22:30 UTC
Vent 2 kt amb direcció variable
Temperatura 3°C
Humitat 93%
Pressió 1014 hPa
Visibilitat 10 km o més
sense núvols per sota de 1500 mi sense presència de cumulonimbus.

METAR: LFBC 192230Z AUTO VRB02KT CAVOK 03/02 Q1014

Hora: 00:01 (23:01 UTC)

Pronòstic

L'informe es va fer fa 3 hores i 1 minuts, a les 20:00 UTC
Pronòstic vàlid del 19 a les 21 UTC al 20 a les 21 UTC
Vent 5 kt del Est
Visibilitat 10 km o més
sense núvols per sota de 1500 mi sense presència de cumulonimbus.
Probabilitat 30% :
Temporalment
l' 19 a les 23 UTC al 20 a les 08 UTC
Visibilitat: 0600 m
boira en bancs

TAF: LFBC 192000Z 1921/2021 09005KT CAVOK PROB30 TEMPO 1923/2008 0600 BCFG

Observacions i pronòstics meteorològics de més de 4000 aeroports (METAR i TAF).

Les estacions disponibles són els punts grocs i vermells al mapa.

Posi el ratolí al punt desitjat per veure el nom de l'estació.

Feu clic per veure les observacions i els pronòstics meteorològics.

Per canviar el mapa: feu clic els botons verds amb una creu de color negre per apropar; al botó verd amb un guió per allunyar la imatge; o en les fletxes verdes per a mapes adjacents.


METAR-TAF: